createdAt,value
2023-10-15T00:01:45.379Z,5.63
2023-10-15T00:03:53.128Z,8.07
2023-10-15T00:06:00.256Z,6.75
2023-10-15T00:08:06.889Z,9.48
2023-10-15T00:10:14.985Z,6.68
2023-10-15T00:12:22.580Z,8.43
2023-10-15T00:14:32.685Z,6.90
2023-10-15T00:16:40.483Z,9.60
2023-10-15T00:18:47.926Z,13.05
2023-10-15T00:21:03.705Z,8.52
2023-10-15T00:23:12.054Z,9.45
2023-10-15T00:25:21.922Z,8.80
2023-10-15T00:27:31.790Z,10.98
2023-10-15T00:29:41.766Z,6.80
2023-10-15T00:31:49.849Z,9.20
2023-10-15T00:33:56.046Z,7.47
2023-10-15T00:36:06.474Z,6.22
2023-10-15T00:38:18.626Z,10.25
2023-10-15T00:40:27.699Z,11.65
2023-10-15T00:42:35.797Z,6.88
2023-10-15T00:44:44.692Z,6.57
2023-10-15T00:46:56.886Z,9.38
2023-10-15T00:49:12.133Z,10.10
2023-10-15T00:51:22.360Z,7.80
2023-10-15T00:53:33.568Z,8.63
2023-10-15T00:55:44.983Z,6.53
2023-10-15T00:57:58.294Z,7.45
2023-10-15T01:00:10.916Z,5.45
2023-10-15T01:02:24.565Z,6.25
2023-10-15T01:04:34.203Z,6.22
2023-10-15T01:06:45.782Z,5.63
2023-10-15T01:08:53.704Z,6.55
2023-10-15T01:11:20.445Z,5.85
2023-10-15T01:13:32.720Z,5.45
2023-10-15T01:15:45.829Z,6.20
2023-10-15T01:18:03.124Z,6.97
2023-10-15T01:20:12.069Z,6.18
2023-10-15T01:22:23.519Z,7.10
2023-10-15T01:24:35.215Z,5.80
2023-10-15T01:26:48.028Z,6.05
2023-10-15T01:28:55.721Z,6.45
2023-10-15T01:31:06.774Z,7.18
2023-10-15T01:33:14.106Z,6.88
2023-10-15T01:35:23.231Z,8.77
2023-10-15T01:37:30.693Z,7.70
2023-10-15T01:39:40.270Z,6.40
2023-10-15T01:41:52.375Z,6.13
2023-10-15T01:44:01.937Z,7.28
2023-10-15T01:46:13.215Z,5.90
2023-10-15T01:48:26.962Z,7.63
2023-10-15T01:50:42.782Z,5.13
2023-10-15T01:52:50.518Z,6.18
2023-10-15T01:55:01.953Z,5.07
2023-10-15T01:57:11.567Z,6.03
2023-10-15T01:59:18.591Z,6.50
2023-10-15T02:01:33.898Z,7.93
2023-10-15T02:03:41.530Z,9.57
2023-10-15T02:05:50.076Z,7.85
2023-10-15T02:07:58.486Z,6.63
2023-10-15T02:10:07.378Z,5.70
2023-10-15T02:12:17.034Z,8.43
2023-10-15T02:14:29.408Z,9.32
2023-10-15T02:16:39.387Z,5.93
2023-10-15T02:18:50.043Z,7.35
2023-10-15T02:21:04.491Z,6.57
2023-10-15T02:23:11.871Z,5.18
2023-10-15T02:25:19.030Z,6.53
2023-10-15T02:27:32.436Z,5.13
2023-10-15T02:29:40.337Z,5.13
2023-10-15T02:31:49.087Z,6.90
2023-10-15T02:33:58.018Z,7.15
2023-10-15T02:36:10.434Z,6.93
2023-10-15T02:38:18.240Z,4.97
2023-10-15T02:40:25.972Z,6.57
2023-10-15T02:42:37.086Z,6.05
2023-10-15T02:44:44.755Z,4.85
2023-10-15T02:46:53.652Z,4.68
2023-10-15T02:49:00.995Z,3.58
2023-10-15T02:51:10.366Z,5.50
2023-10-15T02:53:19.239Z,5.88
2023-10-15T02:55:37.617Z,3.72
2023-10-15T02:57:53.942Z,3.97
2023-10-15T03:00:13.783Z,5.63
2023-10-15T03:02:44.826Z,7.32
2023-10-15T03:04:57.188Z,6.47
2023-10-15T03:07:21.114Z,4.15
2023-10-15T03:09:29.972Z,5.20
2023-10-15T03:11:40.773Z,6.55
2023-10-15T03:13:55.641Z,6.68
2023-10-15T03:16:09.562Z,6.93
2023-10-15T03:18:17.844Z,6.80
2023-10-15T03:20:41.502Z,10.45
2023-10-15T03:22:49.628Z,6.85
2023-10-15T03:24:58.625Z,7.93
2023-10-15T03:27:06.713Z,8.32
2023-10-15T03:29:17.307Z,17.65
2023-10-15T03:31:27.841Z,18.23
2023-10-15T03:33:39.053Z,17.38
2023-10-15T03:35:57.142Z,6.80
2023-10-15T03:38:08.765Z,5.88
2023-10-15T03:40:32.566Z,7.55
2023-10-15T03:42:42.384Z,8.63
2023-10-15T03:44:51.509Z,6.28
2023-10-15T03:47:06.799Z,7.13
2023-10-15T03:49:17.428Z,10.65
2023-10-15T03:51:25.924Z,13.07
2023-10-15T03:53:34.095Z,20.08
2023-10-15T03:55:41.665Z,5.18
2023-10-15T03:57:53.287Z,14.32
2023-10-15T04:00:02.620Z,9.18
2023-10-15T04:02:24.904Z,8.82
2023-10-15T04:04:32.816Z,5.78
2023-10-15T04:06:40.389Z,7.85
2023-10-15T04:11:31.806Z,6.20
2023-10-15T04:13:39.735Z,7.13
2023-10-15T04:15:47.196Z,5.93
2023-10-15T04:17:55.357Z,6.97
2023-10-15T04:20:03.349Z,4.75
2023-10-15T04:22:16.161Z,4.40
2023-10-15T04:24:35.284Z,3.88
2023-10-15T04:26:46.788Z,5.78
2023-10-15T04:28:55.379Z,5.95
2023-10-15T04:31:03.427Z,5.80
2023-10-15T04:33:13.223Z,8.07
2023-10-15T04:35:21.068Z,7.63
2023-10-15T04:37:29.142Z,5.45
2023-10-15T04:39:52.607Z,5.38
2023-10-15T04:42:04.839Z,3.83
2023-10-15T04:44:27.442Z,4.50
2023-10-15T04:46:43.124Z,6.75
2023-10-15T04:48:52.745Z,4.45
2023-10-15T04:51:07.040Z,6.90
2023-10-15T04:53:20.031Z,6.80
2023-10-15T04:55:28.710Z,5.78
2023-10-15T04:57:37.934Z,4.80
2023-10-15T04:59:45.446Z,4.07
2023-10-15T05:01:53.080Z,4.10
2023-10-15T05:04:00.708Z,6.55
2023-10-15T05:06:08.736Z,5.13
2023-10-15T05:08:15.662Z,6.03
2023-10-15T05:10:23.152Z,4.53
2023-10-15T05:12:34.046Z,5.25
2023-10-15T05:14:43.373Z,8.13
2023-10-15T05:16:51.494Z,4.30
2023-10-15T05:19:02.108Z,4.93
2023-10-15T05:21:10.121Z,6.25
2023-10-15T05:23:17.655Z,4.68
2023-10-15T05:25:25.689Z,5.25
2023-10-15T05:27:35.244Z,8.38
2023-10-15T05:29:44.860Z,8.70
2023-10-15T05:31:52.398Z,4.15
2023-10-15T05:33:59.984Z,5.13
2023-10-15T05:36:08.836Z,4.35
2023-10-15T05:38:16.478Z,5.68
2023-10-15T05:40:24.032Z,6.47
2023-10-15T05:42:32.889Z,6.53
2023-10-15T05:44:40.180Z,5.45
2023-10-15T05:46:50.456Z,5.68
2023-10-15T05:48:58.140Z,4.45
2023-10-15T05:51:06.135Z,4.18
2023-10-15T05:53:13.458Z,7.50
2023-10-15T05:55:22.155Z,4.75
2023-10-15T05:57:29.787Z,4.82
2023-10-15T05:59:39.250Z,3.95
2023-10-15T06:01:48.687Z,9.65
2023-10-15T06:03:56.885Z,6.65
2023-10-15T06:06:04.402Z,5.32
2023-10-15T06:08:12.744Z,4.95
2023-10-15T06:10:20.278Z,15.15
2023-10-15T06:12:27.982Z,17.98
2023-10-15T06:14:35.792Z,17.90
2023-10-15T06:16:43.709Z,20.10
2023-10-15T06:18:52.969Z,18.80
2023-10-15T06:21:00.652Z,5.30
2023-10-15T06:23:10.445Z,4.90
2023-10-15T06:25:19.218Z,6.13
2023-10-15T06:27:26.797Z,6.88
2023-10-15T06:29:34.470Z,4.68
2023-10-15T06:31:41.972Z,4.93
2023-10-15T06:33:52.236Z,4.00
2023-10-15T06:35:59.918Z,4.57
2023-10-15T06:38:07.796Z,7.03
2023-10-15T06:40:22.127Z,6.65
2023-10-15T06:42:30.685Z,8.25
2023-10-15T06:44:38.458Z,6.28
2023-10-15T06:46:46.163Z,6.10
2023-10-15T06:48:55.888Z,5.43
2023-10-15T06:51:04.990Z,5.10
2023-10-15T06:53:12.611Z,7.60
2023-10-15T06:55:22.404Z,9.75
2023-10-15T06:57:29.989Z,8.00
2023-10-15T06:59:37.476Z,8.20
2023-10-15T07:01:45.017Z,5.47
2023-10-15T07:03:54.234Z,7.95
2023-10-15T07:06:01.775Z,6.03
2023-10-15T07:08:10.365Z,5.70
2023-10-15T07:10:18.824Z,3.40
2023-10-15T07:12:26.402Z,4.20
2023-10-15T07:14:34.200Z,4.65
2023-10-15T07:16:43.249Z,3.78
2023-10-15T07:18:51.270Z,5.60
2023-10-15T07:21:00.865Z,7.18
2023-10-15T07:23:08.608Z,6.32
2023-10-15T07:25:16.637Z,3.80
2023-10-15T07:27:24.091Z,6.15
2023-10-15T07:29:31.514Z,7.38
2023-10-15T07:31:40.514Z,5.68
2023-10-15T07:33:48.660Z,7.40
2023-10-15T07:35:56.058Z,5.32
2023-10-15T07:38:06.357Z,6.00
2023-10-15T07:40:19.791Z,7.10
2023-10-15T07:42:27.882Z,7.68
2023-10-15T07:44:36.019Z,3.85
2023-10-15T07:46:45.184Z,4.60
2023-10-15T07:48:53.619Z,5.88
2023-10-15T07:51:01.681Z,4.70
2023-10-15T07:53:11.310Z,4.60
2023-10-15T07:55:18.857Z,5.22
2023-10-15T07:57:25.302Z,5.65
2023-10-15T07:59:32.921Z,6.30
2023-10-15T08:01:41.182Z,6.25
2023-10-15T08:03:49.072Z,4.65
2023-10-15T08:05:57.403Z,6.18
2023-10-15T08:08:06.800Z,7.80
2023-10-15T08:10:18.580Z,5.65
2023-10-15T08:12:28.479Z,5.35
2023-10-15T08:14:36.018Z,6.22
2023-10-15T08:16:43.673Z,6.57
2023-10-15T08:18:51.577Z,5.53
2023-10-15T08:20:59.068Z,5.15
2023-10-15T08:23:07.093Z,4.88
2023-10-15T08:25:17.404Z,3.83
2023-10-15T08:27:25.051Z,5.28
2023-10-15T08:29:32.450Z,6.53
2023-10-15T08:31:40.269Z,6.88
2023-10-15T08:33:50.768Z,5.28
2023-10-15T08:35:59.456Z,5.05
2023-10-15T08:38:09.788Z,4.60
2023-10-15T08:40:20.237Z,5.80
2023-10-15T08:42:39.464Z,7.82
2023-10-15T08:44:49.196Z,4.35
2023-10-15T08:46:56.908Z,6.40
2023-10-15T08:49:06.561Z,5.93
2023-10-15T08:51:16.140Z,4.63
2023-10-15T08:53:24.462Z,5.57
2023-10-15T08:55:35.482Z,4.30
2023-10-15T08:57:43.993Z,3.63
2023-10-15T08:59:54.105Z,4.22
2023-10-15T09:02:02.502Z,6.57
2023-10-15T09:04:11.858Z,6.45
2023-10-15T09:06:21.797Z,4.95
2023-10-15T09:08:30.909Z,17.23
2023-10-15T09:10:43.113Z,4.40
2023-10-15T09:12:50.800Z,6.03
2023-10-15T09:14:58.759Z,4.70
2023-10-15T09:17:06.415Z,6.05
2023-10-15T09:19:14.497Z,5.47
2023-10-15T09:21:26.427Z,5.97
2023-10-15T09:23:37.870Z,7.93
2023-10-15T09:25:46.170Z,8.15
2023-10-15T09:27:55.019Z,22.70
2023-10-15T09:30:20.745Z,21.52
2023-10-15T09:32:29.494Z,11.40
2023-10-15T09:34:39.447Z,9.82
2023-10-15T09:36:47.121Z,8.27
2023-10-15T09:38:56.849Z,9.40
2023-10-15T09:41:08.098Z,8.70
2023-10-15T09:43:15.642Z,8.95
2023-10-15T09:45:26.244Z,6.68
2023-10-15T09:47:33.991Z,6.82
2023-10-15T09:49:43.906Z,6.28
2023-10-15T09:51:52.553Z,5.75
2023-10-15T09:54:01.937Z,6.05
2023-10-15T09:56:14.694Z,5.55
2023-10-15T09:58:22.966Z,6.22
2023-10-15T10:00:50.383Z,4.75
2023-10-15T10:03:17.016Z,5.95
2023-10-15T10:05:47.231Z,7.47
2023-10-15T10:08:07.712Z,6.82
2023-10-15T10:10:50.148Z,7.90
2023-10-15T10:13:30.122Z,7.43
2023-10-15T10:15:45.202Z,5.75
2023-10-15T10:17:53.054Z,5.80
2023-10-15T10:19:59.366Z,7.15
2023-10-15T10:22:07.306Z,9.63
2023-10-15T10:24:15.334Z,6.63
2023-10-15T10:26:26.540Z,10.90
2023-10-15T10:28:40.660Z,6.43
2023-10-15T10:30:58.172Z,6.90
2023-10-15T10:33:07.810Z,5.72
2023-10-15T10:35:22.549Z,6.93
2023-10-15T10:37:33.217Z,9.75
2023-10-15T10:39:49.504Z,9.20
2023-10-15T10:42:01.239Z,10.35
2023-10-15T10:44:26.026Z,11.07
2023-10-15T10:46:43.885Z,7.50
2023-10-15T10:49:08.222Z,9.15
2023-10-15T10:51:25.430Z,11.27
2023-10-15T10:53:33.286Z,6.35
2023-10-15T10:55:40.946Z,8.32
2023-10-15T10:57:48.862Z,5.60
2023-10-15T10:59:58.283Z,7.65
2023-10-15T11:02:06.899Z,9.20
2023-10-15T11:04:18.200Z,10.43
2023-10-15T11:06:26.100Z,7.97
2023-10-15T11:08:33.464Z,6.20
2023-10-15T11:10:41.121Z,8.30
2023-10-15T11:12:51.562Z,9.73
2023-10-15T11:15:01.169Z,11.88
2023-10-15T11:17:12.066Z,6.40
2023-10-15T11:19:19.476Z,5.95
2023-10-15T11:21:27.052Z,7.75
2023-10-15T11:23:34.638Z,7.65
2023-10-15T11:25:42.324Z,7.32
2023-10-15T11:27:50.768Z,7.18
2023-10-15T11:30:00.101Z,5.50
2023-10-15T11:32:08.786Z,7.72
2023-10-15T11:34:19.209Z,6.72
2023-10-15T11:36:27.156Z,6.30
2023-10-15T11:38:41.548Z,6.85
2023-10-15T11:40:49.441Z,10.52
2023-10-15T11:42:57.365Z,7.50
2023-10-15T11:45:18.929Z,9.80
2023-10-15T11:47:31.140Z,8.02
2023-10-15T11:49:40.342Z,7.85
2023-10-15T11:51:51.442Z,9.57
2023-10-15T11:54:03.262Z,6.70
2023-10-15T11:56:22.399Z,14.20
2023-10-15T11:58:33.956Z,9.80
2023-10-15T12:00:44.323Z,12.18
2023-10-15T12:02:51.966Z,6.85
2023-10-15T12:05:03.508Z,7.65
2023-10-15T12:07:18.412Z,9.70
2023-10-15T12:09:29.013Z,9.63
2023-10-15T12:11:37.779Z,10.63
2023-10-15T12:13:46.815Z,10.23
2023-10-15T12:15:56.874Z,12.73
2023-10-15T12:18:04.852Z,10.27
2023-10-15T12:20:20.287Z,10.85
2023-10-15T12:22:28.259Z,11.45
2023-10-15T12:24:37.508Z,12.13
2023-10-15T12:26:47.561Z,10.25
2023-10-15T12:31:09.176Z,8.65
2023-10-15T12:33:18.243Z,11.20
2023-10-15T12:35:25.845Z,11.50
2023-10-15T12:37:34.814Z,14.68
2023-10-15T12:39:42.897Z,16.80
2023-10-15T12:41:53.326Z,15.05
2023-10-15T12:44:02.722Z,11.68
2023-10-15T12:46:12.690Z,10.88
2023-10-15T12:48:21.300Z,11.77
2023-10-15T12:50:29.292Z,12.18
2023-10-15T12:52:37.362Z,11.75
2023-10-15T12:54:45.264Z,12.18
2023-10-15T12:56:52.702Z,10.77
2023-10-15T12:59:00.793Z,12.07
2023-10-15T13:01:08.281Z,10.82
2023-10-15T13:03:17.804Z,14.98
2023-10-15T13:05:26.638Z,10.20
2023-10-15T13:07:35.585Z,14.05
2023-10-15T13:09:43.149Z,15.77
2023-10-15T13:11:51.369Z,14.80
2023-10-15T13:13:58.891Z,15.13
2023-10-15T13:16:06.529Z,14.75
2023-10-15T13:18:14.390Z,18.65
2023-10-15T13:20:23.634Z,19.80
2023-10-15T13:22:31.084Z,17.05
2023-10-15T13:24:39.675Z,15.30
2023-10-15T13:26:47.557Z,12.13
2023-10-15T13:28:55.965Z,10.68
2023-10-15T13:31:03.385Z,13.55
2023-10-15T13:33:11.818Z,10.75
2023-10-15T13:35:20.122Z,12.70
2023-10-15T13:37:29.458Z,9.82
2023-10-15T13:39:37.265Z,11.48
2023-10-15T13:41:46.327Z,12.80
2023-10-15T13:43:53.912Z,13.55
2023-10-15T13:46:01.796Z,10.57
2023-10-15T13:48:10.057Z,11.25
2023-10-15T13:50:19.894Z,16.25
2023-10-15T13:52:30.147Z,12.35
2023-10-15T13:54:38.325Z,12.23
2023-10-15T13:56:47.110Z,12.45
2023-10-15T13:58:55.360Z,12.15
2023-10-15T14:01:02.902Z,14.27
2023-10-15T14:03:12.093Z,10.23
2023-10-15T14:05:20.760Z,15.50
2023-10-15T14:07:30.287Z,9.10
2023-10-15T14:09:36.814Z,13.05
2023-10-15T14:11:44.899Z,10.48
2023-10-15T14:13:52.684Z,13.32
2023-10-15T14:16:04.118Z,11.05
2023-10-15T14:18:12.056Z,10.80
2023-10-15T14:20:20.889Z,12.82
2023-10-15T14:22:30.495Z,13.15
2023-10-15T14:24:39.146Z,11.68
2023-10-15T14:26:46.532Z,11.48
2023-10-15T14:28:54.728Z,12.48
2023-10-15T14:31:03.115Z,11.60
2023-10-15T14:33:11.190Z,11.23
2023-10-15T14:35:18.863Z,10.10
2023-10-15T14:37:26.742Z,12.85
2023-10-15T14:39:35.814Z,12.43
2023-10-15T14:41:43.688Z,13.07
2023-10-15T14:43:51.187Z,10.35
2023-10-15T14:45:58.821Z,18.13
2023-10-15T14:48:06.358Z,16.10
2023-10-15T14:50:15.083Z,9.15
2023-10-15T14:52:22.607Z,11.77
2023-10-15T14:54:30.398Z,9.30
2023-10-15T14:56:39.686Z,12.52
2023-10-15T14:58:48.091Z,11.68
2023-10-15T15:00:55.634Z,10.13
2023-10-15T15:03:03.719Z,10.27
2023-10-15T15:05:10.264Z,11.88
2023-10-15T15:07:17.894Z,11.13
2023-10-15T15:09:25.591Z,12.48
2023-10-15T15:11:33.054Z,11.00
2023-10-15T15:13:42.112Z,9.88
2023-10-15T15:15:49.619Z,10.60
2023-10-15T15:17:57.619Z,11.00
2023-10-15T15:20:07.292Z,11.25
2023-10-15T15:22:15.351Z,12.70
2023-10-15T15:24:24.252Z,11.25
2023-10-15T15:26:31.909Z,13.20
2023-10-15T15:28:41.218Z,11.93
2023-10-15T15:30:50.489Z,11.35
2023-10-15T15:32:58.566Z,11.70
2023-10-15T15:35:07.283Z,14.77
2023-10-15T15:37:15.131Z,11.10
2023-10-15T15:39:22.655Z,13.90
2023-10-15T15:41:34.648Z,15.23
2023-10-15T15:45:50.258Z,13.85
2023-10-15T15:47:57.892Z,14.63
2023-10-15T15:50:05.828Z,12.80
2023-10-15T15:52:13.170Z,14.43
2023-10-15T15:54:21.865Z,12.25
2023-10-15T15:56:29.793Z,15.30
2023-10-15T15:58:37.173Z,12.80
2023-10-15T16:00:48.623Z,9.85
2023-10-15T16:02:56.288Z,11.43
2023-10-15T16:05:04.469Z,11.13
2023-10-15T16:07:12.204Z,14.00
2023-10-15T16:09:20.697Z,12.23
2023-10-15T16:11:28.045Z,10.73
2023-10-15T16:13:36.072Z,12.43
2023-10-15T16:15:45.435Z,12.57
2023-10-15T16:17:53.731Z,12.45
2023-10-15T16:20:01.201Z,11.98
2023-10-15T16:22:08.939Z,14.25
2023-10-15T16:24:16.987Z,11.15
2023-10-15T16:26:25.256Z,10.50
2023-10-15T16:28:33.139Z,13.38
2023-10-15T16:30:39.642Z,12.00
2023-10-15T16:32:48.891Z,13.98
2023-10-15T16:34:57.291Z,12.48
2023-10-15T16:37:04.869Z,9.60
2023-10-15T16:39:19.709Z,13.65
2023-10-15T16:41:27.369Z,16.65
2023-10-15T16:43:34.959Z,12.43
2023-10-15T16:45:42.746Z,12.90
2023-10-15T16:47:52.168Z,15.68
2023-10-15T16:49:59.453Z,14.65
2023-10-15T16:52:07.348Z,11.27
2023-10-15T16:54:14.969Z,10.18
2023-10-15T16:56:23.065Z,13.82
2023-10-15T16:58:31.737Z,11.45
2023-10-15T17:00:41.891Z,9.73
2023-10-15T17:02:51.082Z,12.45
2023-10-15T17:05:00.309Z,10.55
2023-10-15T17:07:07.803Z,15.98
2023-10-15T17:09:15.613Z,10.73
2023-10-15T17:11:23.147Z,10.75
2023-10-15T17:13:30.791Z,9.95
2023-10-15T17:15:38.138Z,9.77
2023-10-15T17:17:46.462Z,11.10
2023-10-15T17:19:55.918Z,10.30
2023-10-15T17:22:03.958Z,12.15
2023-10-15T17:24:12.467Z,7.70
2023-10-15T17:26:20.302Z,10.40
2023-10-15T17:28:28.229Z,7.22
2023-10-15T17:30:38.140Z,9.48
2023-10-15T17:32:44.707Z,10.40
2023-10-15T17:34:54.129Z,7.80
2023-10-15T17:37:07.691Z,9.05
2023-10-15T17:39:27.123Z,7.45
2023-10-15T17:41:35.140Z,6.97
2023-10-15T17:43:42.775Z,9.50
2023-10-15T17:45:52.700Z,7.70
2023-10-15T17:48:02.497Z,8.05
2023-10-15T17:50:12.909Z,8.52
2023-10-15T17:52:20.287Z,7.45
2023-10-15T17:54:26.882Z,16.63
2023-10-15T17:56:36.086Z,6.78
2023-10-15T17:58:44.176Z,11.07
2023-10-15T18:00:52.928Z,6.53
2023-10-15T18:03:01.032Z,7.07
2023-10-15T18:05:09.839Z,9.80
2023-10-15T18:07:19.825Z,11.30
2023-10-15T18:09:27.480Z,8.75
2023-10-15T18:11:36.659Z,6.93
2023-10-15T18:13:44.843Z,7.95
2023-10-15T18:15:52.438Z,8.35
2023-10-15T18:18:00.100Z,6.57
2023-10-15T18:20:08.304Z,9.18
2023-10-15T18:22:15.914Z,7.00
2023-10-15T18:24:25.718Z,7.97
2023-10-15T18:26:33.554Z,7.90
2023-10-15T18:28:42.502Z,7.20
2023-10-15T18:30:50.029Z,9.05
2023-10-15T18:32:57.916Z,7.38
2023-10-15T18:35:06.449Z,7.93
2023-10-15T18:37:14.190Z,10.15
2023-10-15T18:39:22.541Z,8.15
2023-10-15T18:41:32.154Z,8.98
2023-10-15T18:43:39.410Z,9.45
2023-10-15T18:45:49.574Z,5.68
2023-10-15T18:47:57.807Z,6.30
2023-10-15T18:50:05.439Z,5.68
2023-10-15T18:52:13.636Z,11.35
2023-10-15T18:54:21.436Z,10.65
2023-10-15T18:56:32.330Z,9.60
2023-10-15T18:58:40.095Z,10.52
2023-10-15T19:00:48.274Z,8.65
2023-10-15T19:02:56.043Z,10.70
2023-10-15T19:05:03.651Z,9.88
2023-10-15T19:07:15.076Z,7.55
2023-10-15T19:11:32.012Z,10.27
2023-10-15T19:13:39.804Z,7.85
2023-10-15T19:15:56.405Z,8.95
2023-10-15T19:18:04.952Z,7.63
2023-10-15T19:20:14.545Z,9.93
2023-10-15T19:22:22.278Z,9.43
2023-10-15T19:24:30.892Z,7.72
2023-10-15T19:26:40.987Z,8.65
2023-10-15T19:28:48.369Z,7.15
2023-10-15T19:30:56.321Z,8.93
2023-10-15T19:33:03.791Z,10.43
2023-10-15T19:35:12.573Z,7.45
2023-10-15T19:37:19.944Z,10.25
2023-10-15T19:39:28.488Z,9.15
2023-10-15T19:41:35.810Z,7.63
2023-10-15T19:43:44.480Z,6.28
2023-10-15T19:45:52.005Z,10.15
2023-10-15T19:48:00.296Z,9.73
2023-10-15T19:50:08.713Z,11.25
2023-10-15T19:52:19.048Z,7.38
2023-10-15T19:54:26.983Z,7.40
2023-10-15T19:56:35.257Z,6.97
2023-10-15T19:58:45.158Z,8.70
2023-10-15T20:00:53.455Z,9.25
2023-10-15T20:03:01.316Z,10.63
2023-10-15T20:05:10.069Z,9.18
2023-10-15T20:07:17.563Z,8.90
2023-10-15T20:09:25.425Z,7.82
2023-10-15T20:11:32.969Z,10.50
2023-10-15T20:13:40.901Z,7.28
2023-10-15T20:15:51.140Z,9.43
2023-10-15T20:18:00.741Z,7.88
2023-10-15T20:20:10.662Z,9.48
2023-10-15T20:22:19.940Z,10.05
2023-10-15T20:24:27.298Z,14.30
2023-10-15T20:26:35.213Z,10.13
2023-10-15T20:28:42.713Z,6.25
2023-10-15T20:30:52.337Z,8.07
2023-10-15T20:32:59.853Z,7.18
2023-10-15T20:35:10.435Z,8.68
2023-10-15T20:37:18.374Z,7.13
2023-10-15T20:39:27.152Z,8.18
2023-10-15T20:41:34.431Z,5.13
2023-10-15T20:43:43.085Z,7.57
2023-10-15T20:45:50.915Z,7.78
2023-10-15T20:47:58.963Z,7.30
2023-10-15T20:50:10.018Z,8.88
2023-10-15T20:52:17.768Z,6.68
2023-10-15T20:54:25.516Z,5.63
2023-10-15T20:56:33.311Z,14.23
2023-10-15T20:58:40.641Z,7.60
2023-10-15T21:00:48.937Z,7.78
2023-10-15T21:03:01.793Z,7.80
2023-10-15T21:05:11.680Z,8.65
2023-10-15T21:07:19.460Z,8.60
2023-10-15T21:09:27.183Z,8.65
2023-10-15T21:11:33.283Z,9.80
2023-10-15T21:13:41.765Z,10.23
2023-10-15T21:15:49.149Z,7.05
2023-10-15T21:17:58.821Z,12.70
2023-10-15T21:20:09.954Z,13.32
2023-10-15T21:22:17.550Z,10.15
2023-10-15T21:24:25.005Z,8.73
2023-10-15T21:26:33.004Z,9.68
2023-10-15T21:28:40.390Z,11.88
2023-10-15T21:30:47.869Z,9.40
2023-10-15T21:32:57.089Z,10.50
2023-10-15T21:35:04.845Z,11.32
2023-10-15T21:37:12.809Z,9.05
2023-10-15T21:39:24.570Z,9.38
2023-10-15T21:41:32.006Z,10.27
2023-10-15T21:43:39.651Z,11.02
2023-10-15T21:45:50.205Z,10.05
2023-10-15T21:47:58.299Z,13.05
2023-10-15T21:50:06.094Z,11.13
2023-10-15T21:52:13.961Z,14.50
2023-10-15T21:54:21.324Z,12.68
2023-10-15T21:56:28.995Z,10.88
2023-10-15T21:58:36.323Z,12.10
2023-10-15T22:00:52.274Z,9.73
2023-10-15T22:03:01.806Z,10.70
2023-10-15T22:05:11.220Z,8.43
2023-10-15T22:07:18.550Z,10.57
2023-10-15T22:09:27.222Z,5.88
2023-10-15T22:11:34.653Z,9.82
2023-10-15T22:13:42.481Z,7.93
2023-10-15T22:15:54.134Z,10.63
2023-10-15T22:18:05.472Z,12.32
2023-10-15T22:20:21.778Z,14.30
2023-10-15T22:22:29.624Z,11.90
2023-10-15T22:24:42.280Z,10.27
2023-10-15T22:26:50.920Z,8.80
2023-10-15T22:28:59.832Z,8.98
2023-10-15T22:31:09.944Z,15.27
2023-10-15T22:33:19.155Z,12.80
2023-10-15T22:35:26.946Z,12.95
2023-10-15T22:37:34.370Z,10.20
2023-10-15T22:39:42.190Z,9.00
2023-10-15T22:41:49.566Z,9.02
2023-10-15T22:43:57.366Z,9.48
2023-10-15T22:46:07.128Z,10.05
2023-10-15T22:48:15.023Z,12.35
2023-10-15T22:50:24.854Z,9.63
2023-10-15T22:52:32.598Z,10.77
2023-10-15T22:54:40.386Z,10.43
2023-10-15T22:56:47.700Z,8.63
2023-10-15T22:58:55.127Z,10.55
2023-10-15T23:01:02.643Z,10.90
2023-10-15T23:03:11.863Z,10.00
2023-10-15T23:05:17.967Z,10.65
2023-10-15T23:07:27.466Z,8.63
2023-10-15T23:09:35.051Z,10.75
2023-10-15T23:11:42.772Z,7.60
2023-10-15T23:13:49.854Z,9.43
2023-10-15T23:15:57.476Z,11.30
2023-10-15T23:18:08.596Z,10.40
2023-10-15T23:20:29.330Z,12.50
2023-10-15T23:22:38.250Z,14.52
2023-10-15T23:24:46.617Z,11.40
2023-10-15T23:26:53.948Z,13.05
2023-10-15T23:29:02.611Z,12.60
2023-10-15T23:31:12.770Z,11.25
2023-10-15T23:33:22.087Z,13.38
2023-10-15T23:35:30.314Z,12.52
2023-10-15T23:37:40.561Z,14.25
2023-10-15T23:39:47.982Z,18.45
2023-10-15T23:41:55.802Z,16.30
2023-10-15T23:44:02.977Z,17.50
2023-10-15T23:46:10.917Z,16.33
2023-10-15T23:48:19.643Z,15.35
2023-10-15T23:50:33.277Z,15.70
2023-10-15T23:52:45.789Z,15.90
2023-10-15T23:54:56.750Z,13.82
2023-10-15T23:57:05.379Z,15.10
2023-10-15T23:59:13.104Z,14.43
